Time,TemperatureF,DewpointF,PressureIn,WindDirection,WindDirectionDegrees,WindSpeedMPH,WindSpeedGustMPH,Humidity,HourlyPrecipIn,Conditions,Clouds,dailyrainin,SoftwareType,DateUTC
2013-12-26 00:01:00,9.0,-3.2,30.01,West,271,4.0,4.5,57,0.00,,---,0.00,VWS V13.01,2013-12-26 06:01:00,
2013-12-26 00:06:00,9.0,-3.2,30.01,WNW,294,0.0,3.1,57,0.00,,---,0.00,VWS V13.01,2013-12-26 06:06:00,
2013-12-26 00:11:00,9.1,-3.0,30.01,WNW,294,0.0,0.0,57,0.00,,---,0.00,VWS V13.01,2013-12-26 06:11:00,
2013-12-26 00:16:00,9.0,-3.2,30.01,WNW,294,0.0,0.0,57,0.00,,---,0.00,VWS V13.01,2013-12-26 06:16:00,
2013-12-26 00:21:00,8.8,-3.3,30.01,WNW,294,0.0,3.6,57,0.00,,---,0.00,VWS V13.01,2013-12-26 06:21:00,
2013-12-26 00:26:00,8.8,-3.3,30.01,North,357,3.6,4.0,57,0.00,,---,0.00,VWS V13.01,2013-12-26 06:26:00,
2013-12-26 00:31:00,8.6,-3.5,30.01,North,357,0.0,0.0,57,0.00,,---,0.00,VWS V13.01,2013-12-26 06:31:00,
2013-12-26 00:36:00,8.6,-3.5,30.01,WNW,294,0.0,0.0,57,0.00,,---,0.00,VWS V13.01,2013-12-26 06:36:00,
2013-12-26 00:41:00,8.4,-3.7,30.01,WNW,294,0.0,0.0,57,0.00,,---,0.00,VWS V13.01,2013-12-26 06:41:00,
2013-12-26 00:46:00,8.2,-3.8,30.01,WSW,253,0.0,0.0,57,0.00,,---,0.00,VWS V13.01,2013-12-26 06:46:00,
2013-12-26 00:51:00,8.1,-4.0,30.01,West,261,0.0,0.0,57,0.00,,---,0.00,VWS V13.01,2013-12-26 06:51:00,
2013-12-26 00:56:00,8.1,-4.0,30.01,West,261,0.0,0.0,57,0.00,,---,0.00,VWS V13.01,2013-12-26 06:56:00,
2013-12-26 01:01:00,7.9,-4.2,30.04,West,261,0.0,0.0,57,0.00,,---,0.00,VWS V13.01,2013-12-26 07:01:00,
2013-12-26 01:06:00,7.9,-4.2,30.04,West,261,0.0,0.0,57,0.00,,---,0.00,VWS V13.01,2013-12-26 07:06:00,
2013-12-26 01:12:00,7.9,-4.2,30.04,West,261,0.0,0.0,57,0.00,,---,0.00,VWS V13.01,2013-12-26 07:12:00,
2013-12-26 01:17:00,7.9,-4.2,30.04,West,261,0.0,0.0,57,0.00,,---,0.00,VWS V13.01,2013-12-26 07:17:00,
2013-12-26 01:22:00,7.9,-4.2,30.04,West,261,0.0,0.0,57,0.00,,---,0.00,VWS V13.01,2013-12-26 07:22:00,
2013-12-26 01:27:00,7.9,-4.2,30.04,West,261,0.0,0.0,57,0.00,,---,0.00,VWS V13.01,2013-12-26 07:27:00,
2013-12-26 01:32:00,7.7,-4.3,30.04,West,261,0.0,0.0,57,0.00,,---,0.00,VWS V13.01,2013-12-26 07:32:00,
2013-12-26 01:37:00,7.7,-4.3,30.04,West,261,0.0,0.0,57,0.00,,---,0.00,VWS V13.01,2013-12-26 07:37:00,
2013-12-26 01:42:00,7.5,-4.5,30.04,West,261,0.0,0.0,57,0.00,,---,0.00,VWS V13.01,2013-12-26 07:42:00,
2013-12-26 01:47:00,7.5,-4.5,30.04,West,261,3.6,3.6,57,0.00,,---,0.00,VWS V13.01,2013-12-26 07:47:00,
2013-12-26 01:52:00,7.3,-4.7,30.04,West,261,3.1,3.1,57,0.00,,---,0.00,VWS V13.01,2013-12-26 07:52:00,
2013-12-26 01:57:00,7.3,-4.7,30.04,West,261,3.1,3.1,57,0.00,,---,0.00,VWS V13.01,2013-12-26 07:57:00,
2013-12-26 02:02:00,7.3,-4.7,30.04,WSW,256,3.1,3.1,57,0.00,,---,0.00,VWS V13.01,2013-12-26 08:02:00,
2013-12-26 02:07:00,7.3,-4.7,30.04,West,268,2.7,2.7,57,0.00,,---,0.00,VWS V13.01,2013-12-26 08:07:00,
2013-12-26 02:12:00,7.3,-4.7,30.04,West,261,0.0,2.7,57,0.00,,---,0.00,VWS V13.01,2013-12-26 08:12:00,
2013-12-26 02:17:00,7.5,-4.5,30.07,WNW,288,0.0,0.0,57,0.00,,---,0.00,VWS V13.01,2013-12-26 08:17:00,
2013-12-26 02:22:00,7.5,-4.5,30.07,WNW,295,0.0,0.0,57,0.00,,---,0.00,VWS V13.01,2013-12-26 08:22:00,
2013-12-26 02:27:00,7.5,-4.5,30.07,WSW,242,3.1,3.6,57,0.00,,---,0.00,VWS V13.01,2013-12-26 08:27:00,
2013-12-26 02:33:00,7.5,-4.5,30.07,SW,216,3.1,4.5,57,0.00,,---,0.00,VWS V13.01,2013-12-26 08:33:00,
2013-12-26 02:38:00,7.5,-4.5,30.07,SW,229,0.0,4.0,57,0.00,,---,0.00,VWS V13.01,2013-12-26 08:38:00,
2013-12-26 02:43:00,7.5,-4.5,30.07,SW,221,0.0,0.0,57,0.00,,---,0.00,VWS V13.01,2013-12-26 08:43:00,
2013-12-26 02:48:00,7.5,-4.5,30.04,SW,222,0.0,0.0,57,0.00,,---,0.00,VWS V13.01,2013-12-26 08:48:00,
2013-12-26 02:53:00,7.3,-4.7,30.04,SW,222,0.0,0.0,57,0.00,,---,0.00,VWS V13.01,2013-12-26 08:53:00,
2013-12-26 02:58:00,7.2,-4.9,30.04,SW,222,0.0,0.0,57,0.00,,---,0.00,VWS V13.01,2013-12-26 08:58:00,
2013-12-26 03:03:00,7.2,-4.9,30.04,SW,222,0.0,0.0,57,0.00,,---,0.00,VWS V13.01,2013-12-26 09:03:00,
2013-12-26 03:08:00,7.2,-4.9,30.04,SW,222,0.0,0.0,57,0.00,,---,0.00,VWS V13.01,2013-12-26 09:08:00,
2013-12-26 03:13:00,7.0,-5.0,30.04,SW,222,0.0,0.0,57,0.00,,---,0.00,VWS V13.01,2013-12-26 09:13:00,
2013-12-26 03:18:00,7.0,-5.0,30.04,SW,222,0.0,0.0,57,0.00,,---,0.00,VWS V13.01,2013-12-26 09:18:00,
2013-12-26 03:23:00,7.0,-5.0,30.04,SW,222,0.0,0.0,57,0.00,,---,0.00,VWS V13.01,2013-12-26 09:23:00,
2013-12-26 03:28:00,7.0,-5.0,30.04,SW,222,0.0,0.0,57,0.00,,---,0.00,VWS V13.01,2013-12-26 09:28:00,
2013-12-26 03:33:00,7.0,-5.0,30.04,SW,222,0.0,0.0,57,0.00,,---,0.00,VWS V13.01,2013-12-26 09:33:00,
2013-12-26 03:38:00,6.8,-5.2,30.04,SW,222,0.0,0.0,57,0.00,,---,0.00,VWS V13.01,2013-12-26 09:38:00,
2013-12-26 03:43:00,6.8,-5.2,30.04,SW,222,0.0,0.0,57,0.00,,---,0.00,VWS V13.01,2013-12-26 09:43:00,
2013-12-26 03:49:00,6.8,-5.2,30.04,SW,222,0.0,0.0,57,0.00,,---,0.00,VWS V13.01,2013-12-26 09:49:00,
2013-12-26 03:54:00,6.8,-5.2,30.04,SW,222,0.0,0.0,57,0.00,,---,0.00,VWS V13.01,2013-12-26 09:54:00,
2013-12-26 03:59:00,6.8,-5.2,30.04,SW,222,0.0,0.0,57,0.00,,---,0.00,VWS V13.01,2013-12-26 09:59:00,
2013-12-26 04:04:00,6.6,-5.4,30.04,SW,222,0.0,0.0,57,0.00,,---,0.00,VWS V13.01,2013-12-26 10:04:00,
2013-12-26 04:09:00,6.6,-5.4,30.04,SW,222,0.0,0.0,57,0.00,,---,0.00,VWS V13.01,2013-12-26 10:09:00,
2013-12-26 04:14:00,6.4,-5.5,30.04,SW,222,0.0,0.0,57,0.00,,---,0.00,VWS V13.01,2013-12-26 10:14:00,
2013-12-26 04:19:00,6.4,-5.5,30.04,SW,222,0.0,0.0,57,0.00,,---,0.00,VWS V13.01,2013-12-26 10:19:00,
2013-12-26 04:24:00,6.3,-5.7,30.04,SW,222,4.0,4.0,57,0.00,,---,0.00,VWS V13.01,2013-12-26 10:24:00,
2013-12-26 04:29:00,6.1,-5.9,30.04,SW,222,0.0,0.0,57,0.00,,---,0.00,VWS V13.01,2013-12-26 10:29:00,
2013-12-26 04:34:00,6.1,-5.9,30.07,SW,222,2.7,3.1,57,0.00,,---,0.00,VWS V13.01,2013-12-26 10:34:00,
2013-12-26 04:40:00,5.9,-6.0,30.07,SW,222,0.0,3.1,57,0.00,,---,0.00,VWS V13.01,2013-12-26 10:40:00,
2013-12-26 04:45:00,5.9,-6.0,30.07,SW,222,0.0,0.0,57,0.00,,---,0.00,VWS V13.01,2013-12-26 10:45:00,
2013-12-26 04:50:00,5.9,-6.0,30.07,SW,222,0.0,0.0,57,0.00,,---,0.00,VWS V13.01,2013-12-26 10:50:00,
2013-12-26 04:55:00,5.9,-6.0,30.07,SW,222,3.6,3.6,57,0.00,,---,0.00,VWS V13.01,2013-12-26 10:55:00,
2013-12-26 05:00:00,5.9,-6.0,30.07,SW,235,4.0,4.5,57,0.00,,---,0.00,VWS V13.01,2013-12-26 11:00:00,
2013-12-26 05:05:00,5.9,-6.0,30.07,WSW,241,3.1,3.6,57,0.00,,---,0.00,VWS V13.01,2013-12-26 11:05:00,
2013-12-26 05:10:00,5.9,-6.0,30.07,WNW,290,3.1,3.6,57,0.00,,---,0.00,VWS V13.01,2013-12-26 11:10:00,
2013-12-26 05:15:00,6.1,-5.9,30.07,SW,226,4.0,4.0,57,0.00,,---,0.00,VWS V13.01,2013-12-26 11:15:00,
2013-12-26 05:20:00,6.1,-5.9,30.07,SW,217,0.0,0.0,57,0.00,,---,0.00,VWS V13.01,2013-12-26 11:20:00,
2013-12-26 05:25:00,6.1,-5.9,30.07,West,263,3.1,3.1,57,0.00,,---,0.00,VWS V13.01,2013-12-26 11:25:00,
2013-12-26 05:30:00,5.9,-6.0,30.07,WSW,241,3.6,3.6,57,0.00,,---,0.00,VWS V13.01,2013-12-26 11:30:00,
2013-12-26 05:36:00,5.9,-6.0,30.07,WSW,245,0.0,0.0,57,0.00,,---,0.00,VWS V13.01,2013-12-26 11:36:00,
2013-12-26 05:41:00,5.9,-6.0,30.07,WSW,246,0.0,0.0,57,0.00,,---,0.00,VWS V13.01,2013-12-26 11:41:00,
2013-12-26 05:46:00,5.9,-6.0,30.07,SW,229,2.7,3.6,57,0.00,,---,0.00,VWS V13.01,2013-12-26 11:46:00,
2013-12-26 05:51:00,5.5,-6.4,30.07,SW,229,0.0,0.0,57,0.00,,---,0.00,VWS V13.01,2013-12-26 11:51:00,
2013-12-26 05:56:00,5.5,-6.4,30.07,SW,229,0.0,0.0,57,0.00,,---,0.00,VWS V13.01,2013-12-26 11:56:00,
2013-12-26 06:01:00,5.4,-6.6,30.07,SW,229,0.0,0.0,57,0.00,,---,0.00,VWS V13.01,2013-12-26 12:01:00,
2013-12-26 06:06:00,5.4,-6.6,30.07,SW,228,0.0,0.0,57,0.00,,---,0.00,VWS V13.01,2013-12-26 12:06:00,
2013-12-26 06:11:00,5.0,-6.9,30.07,SW,227,0.0,0.0,57,0.00,,---,0.00,VWS V13.01,2013-12-26 12:11:00,
2013-12-26 06:16:00,5.0,-6.9,30.07,SW,229,0.0,0.0,57,0.00,,---,0.00,VWS V13.01,2013-12-26 12:16:00,
2013-12-26 06:22:00,4.6,-7.2,30.07,SW,229,0.0,0.0,57,0.00,,---,0.00,VWS V13.01,2013-12-26 12:22:00,
2013-12-26 06:27:00,4.5,-7.4,30.07,SW,229,0.0,0.0,57,0.00,,---,0.00,VWS V13.01,2013-12-26 12:27:00,
2013-12-26 06:32:00,4.5,-7.4,30.07,SW,229,0.0,0.0,57,0.00,,---,0.00,VWS V13.01,2013-12-26 12:32:00,
2013-12-26 06:37:00,4.1,-7.7,30.07,SW,228,0.0,0.0,57,0.00,,---,0.00,VWS V13.01,2013-12-26 12:37:00,
2013-12-26 06:42:00,4.1,-7.7,30.07,SW,229,0.0,0.0,57,0.00,,---,0.00,VWS V13.01,2013-12-26 12:42:00,
2013-12-26 06:47:00,3.9,-7.9,30.07,SW,229,0.0,0.0,57,0.00,,---,0.00,VWS V13.01,2013-12-26 12:47:00,
2013-12-26 06:52:00,3.7,-8.1,30.07,SW,229,0.0,0.0,57,0.00,,---,0.00,VWS V13.01,2013-12-26 12:52:00,
2013-12-26 06:57:00,3.6,-8.2,30.07,SW,229,0.0,0.0,57,0.00,,---,0.00,VWS V13.01,2013-12-26 12:57:00,
2013-12-26 06:59:00,3.6,-8.2,30.07,SW,229,0.0,0.0,57,0.00,,---,0.00,VWS V13.01,2013-12-26 12:59:00,
2013-12-26 07:04:00,3.6,-8.2,30.07,SW,229,0.0,0.0,57,0.00,,---,0.00,VWS V13.01,2013-12-26 13:04:00,
2013-12-26 07:09:00,3.7,-8.1,30.07,SW,229,3.1,3.1,57,0.00,,---,0.00,VWS V13.01,2013-12-26 13:09:00,
2013-12-26 07:15:00,3.7,-8.1,30.07,SW,229,0.0,0.0,57,0.00,,---,0.00,VWS V13.01,2013-12-26 13:15:00,
2013-12-26 07:20:00,3.9,-7.9,30.07,SW,229,0.0,0.0,57,0.00,,---,0.00,VWS V13.01,2013-12-26 13:20:00,
2013-12-26 07:25:00,4.1,-7.7,30.07,SW,229,0.0,0.0,57,0.00,,---,0.00,VWS V13.01,2013-12-26 13:25:00,
2013-12-26 07:30:00,4.1,-7.7,30.07,SW,229,0.0,0.0,57,0.00,,---,0.00,VWS V13.01,2013-12-26 13:30:00,
2013-12-26 07:35:00,4.1,-7.7,30.07,SW,229,0.0,0.0,57,0.00,,---,0.00,VWS V13.01,2013-12-26 13:35:00,
2013-12-26 07:40:00,4.1,-7.7,30.07,SW,229,0.0,0.0,57,0.00,,---,0.00,VWS V13.01,2013-12-26 13:40:00,
2013-12-26 07:45:00,4.1,-7.7,30.07,SW,229,0.0,0.0,57,0.00,,---,0.00,VWS V13.01,2013-12-26 13:45:00,
2013-12-26 07:50:00,3.7,-8.1,30.07,SW,229,0.0,0.0,57,0.00,,---,0.00,VWS V13.01,2013-12-26 13:50:00,
2013-12-26 07:55:00,3.7,-8.1,30.07,SW,229,0.0,0.0,57,0.00,,---,0.00,VWS V13.01,2013-12-26 13:55:00,
2013-12-26 08:00:00,3.2,-8.6,30.07,SW,229,0.0,0.0,57,0.00,,---,0.00,VWS V13.01,2013-12-26 14:00:00,
2013-12-26 08:05:00,3.0,-8.8,30.07,SW,229,0.0,0.0,57,0.00,,---,0.00,VWS V13.01,2013-12-26 14:05:00,
2013-12-26 08:10:00,3.0,-8.8,30.07,SW,229,0.0,0.0,57,0.00,,---,0.00,VWS V13.01,2013-12-26 14:10:00,
2013-12-26 08:15:00,3.0,-8.8,30.07,SW,229,0.0,0.0,57,0.00,,---,0.00,VWS V13.01,2013-12-26 14:15:00,
2013-12-26 08:20:00,3.2,-8.6,30.07,SW,229,0.0,0.0,57,0.00,,---,0.00,VWS V13.01,2013-12-26 14:20:00,
2013-12-26 08:25:00,3.4,-8.4,30.07,SW,229,0.0,0.0,57,0.00,,---,0.00,VWS V13.01,2013-12-26 14:25:00,
2013-12-26 08:30:00,3.6,-8.2,30.10,SW,229,0.0,0.0,57,0.00,,---,0.00,VWS V13.01,2013-12-26 14:30:00,
2013-12-26 08:36:00,3.9,-7.9,30.10,SW,229,0.0,0.0,57,0.00,,---,0.00,VWS V13.01,2013-12-26 14:36:00,
2013-12-26 08:41:00,4.1,-7.7,30.10,SW,229,0.0,0.0,57,0.00,,---,0.00,VWS V13.01,2013-12-26 14:41:00,
2013-12-26 08:46:00,4.5,-7.4,30.10,SW,228,0.0,0.0,57,0.00,,---,0.00,VWS V13.01,2013-12-26 14:46:00,
2013-12-26 08:51:00,4.8,-7.1,30.10,SW,229,0.0,0.0,57,0.00,,---,0.00,VWS V13.01,2013-12-26 14:51:00,
2013-12-26 08:56:00,5.0,-6.9,30.10,SW,228,0.0,0.0,57,0.00,,---,0.00,VWS V13.01,2013-12-26 14:56:00,
2013-12-26 09:01:00,5.4,-6.6,30.10,SW,229,0.0,0.0,57,0.00,,---,0.00,VWS V13.01,2013-12-26 15:01:00,
2013-12-26 09:06:00,5.9,-6.0,30.10,SW,229,0.0,0.0,57,0.00,,---,0.00,VWS V13.01,2013-12-26 15:06:00,
2013-12-26 09:11:00,6.3,-5.7,30.10,SW,229,0.0,0.0,57,0.00,,---,0.00,VWS V13.01,2013-12-26 15:11:00,
2013-12-26 09:16:00,6.6,-5.4,30.10,SW,228,0.0,0.0,57,0.00,,---,0.00,VWS V13.01,2013-12-26 15:16:00,
2013-12-26 09:21:00,7.0,-5.0,30.10,SW,228,4.0,4.0,57,0.00,,---,0.00,VWS V13.01,2013-12-26 15:21:00,
2013-12-26 09:26:00,7.5,-4.5,30.10,SW,228,0.0,0.0,57,0.00,,---,0.00,VWS V13.01,2013-12-26 15:26:00,
2013-12-26 09:31:00,7.5,-4.5,30.10,SSE,163,4.0,4.5,57,0.00,,---,0.00,VWS V13.01,2013-12-26 15:31:00,
2013-12-26 09:36:00,7.2,-4.9,30.10,SSE,153,4.0,4.0,57,0.00,,---,0.00,VWS V13.01,2013-12-26 15:36:00,
2013-12-26 09:41:00,7.2,-4.9,30.10,SSE,153,0.0,2.7,57,0.00,,---,0.00,VWS V13.01,2013-12-26 15:41:00,
2013-12-26 09:47:00,7.0,-5.0,30.10,SSE,153,0.0,0.0,57,0.00,,---,0.00,VWS V13.01,2013-12-26 15:47:00,
2013-12-26 09:52:00,7.0,-5.0,30.10,SSE,153,0.0,0.0,57,0.00,,---,0.00,VWS V13.01,2013-12-26 15:52:00,
2013-12-26 09:57:00,7.2,-4.9,30.10,SSE,153,0.0,0.0,57,0.00,,---,0.00,VWS V13.01,2013-12-26 15:57:00,
2013-12-26 10:02:00,7.7,-4.3,30.10,SSE,153,0.0,0.0,57,0.00,,---,0.00,VWS V13.01,2013-12-26 16:02:00,
2013-12-26 10:07:00,8.4,-3.7,30.10,SSE,153,0.0,0.0,57,0.00,,---,0.00,VWS V13.01,2013-12-26 16:07:00,
2013-12-26 10:12:00,9.0,-3.2,30.10,SSE,153,0.0,0.0,57,0.00,,---,0.00,VWS V13.01,2013-12-26 16:12:00,
2013-12-26 10:17:00,9.5,-2.7,30.10,SSE,153,0.0,0.0,57,0.00,,---,0.00,VWS V13.01,2013-12-26 16:17:00,
2013-12-26 10:22:00,9.9,-2.3,30.10,West,274,0.0,0.0,57,0.00,,---,0.00,VWS V13.01,2013-12-26 16:22:00,
2013-12-26 10:27:00,10.2,-2.0,30.10,West,275,0.0,0.0,57,0.00,,---,0.00,VWS V13.01,2013-12-26 16:27:00,
2013-12-26 10:32:00,10.6,-1.6,30.10,West,280,0.0,0.0,57,0.00,,---,0.00,VWS V13.01,2013-12-26 16:32:00,
2013-12-26 10:38:00,11.1,-1.1,30.10,SSE,160,3.1,3.1,57,0.00,,---,0.00,VWS V13.01,2013-12-26 16:38:00,
2013-12-26 10:43:00,11.7,-0.6,30.10,SE,137,3.1,4.7,57,0.00,,---,0.00,VWS V13.01,2013-12-26 16:43:00,
2013-12-26 10:48:00,11.3,-1.0,30.10,SSE,157,4.5,4.7,57,0.00,,---,0.00,VWS V13.01,2013-12-26 16:48:00,
2013-12-26 10:53:00,10.9,-1.3,30.10,SSE,163,4.7,5.6,57,0.00,,---,0.00,VWS V13.01,2013-12-26 16:53:00,
2013-12-26 10:58:00,11.1,-1.1,30.10,SE,142,3.6,3.6,57,0.00,,---,0.00,VWS V13.01,2013-12-26 16:58:00,
2013-12-26 11:03:00,10.9,-1.3,30.10,SE,144,2.7,4.5,57,0.00,,---,0.00,VWS V13.01,2013-12-26 17:03:00,
2013-12-26 11:08:00,10.8,-1.5,30.10,SE,143,2.7,4.0,57,0.00,,---,0.00,VWS V13.01,2013-12-26 17:08:00,
2013-12-26 11:13:00,10.9,-1.3,30.10,South,185,4.0,4.0,57,0.00,,---,0.00,VWS V13.01,2013-12-26 17:13:00,
2013-12-26 11:18:00,11.1,-1.1,30.10,SSW,204,3.6,5.1,57,0.00,,---,0.00,VWS V13.01,2013-12-26 17:18:00,
2013-12-26 11:23:00,11.1,-1.1,30.10,SSW,196,4.0,5.1,57,0.00,,---,0.00,VWS V13.01,2013-12-26 17:23:00,
2013-12-26 11:28:00,11.3,-1.0,30.10,SW,216,4.0,4.0,57,0.00,,---,0.00,VWS V13.01,2013-12-26 17:28:00,
2013-12-26 11:34:00,11.7,-0.6,30.10,South,176,4.0,4.7,57,0.00,,---,0.00,VWS V13.01,2013-12-26 17:34:00,
2013-12-26 11:39:00,12.2,-0.1,30.10,South,187,3.6,3.6,57,0.00,,---,0.00,VWS V13.01,2013-12-26 17:39:00,
2013-12-26 11:44:00,12.7,0.4,30.10,South,185,4.7,6.0,57,0.00,,---,0.00,VWS V13.01,2013-12-26 17:44:00,
2013-12-26 11:49:00,12.7,0.4,30.10,SE,138,3.6,5.6,57,0.00,,---,0.00,VWS V13.01,2013-12-26 17:49:00,
2013-12-26 11:54:00,12.7,0.4,30.10,South,172,5.1,6.0,57,0.00,,---,0.00,VWS V13.01,2013-12-26 17:54:00,
2013-12-26 11:59:00,12.7,0.4,30.10,SSW,209,4.5,4.5,57,0.00,,---,0.00,VWS V13.01,2013-12-26 17:59:00,
2013-12-26 12:04:00,12.6,0.2,30.10,SW,219,5.1,5.1,57,0.00,,---,0.00,VWS V13.01,2013-12-26 18:04:00,
2013-12-26 12:09:00,12.6,0.2,30.10,SSE,155,4.7,4.7,57,0.00,,---,0.00,VWS V13.01,2013-12-26 18:09:00,
2013-12-26 12:14:00,12.6,0.2,30.10,SSE,166,4.5,5.1,57,0.00,,---,0.00,VWS V13.01,2013-12-26 18:14:00,
2013-12-26 12:19:00,12.2,-0.1,30.10,SSE,150,2.7,4.0,57,0.00,,---,0.00,VWS V13.01,2013-12-26 18:19:00,
2013-12-26 12:24:00,12.2,-0.1,30.10,SSE,162,0.0,3.6,57,0.00,,---,0.00,VWS V13.01,2013-12-26 18:24:00,
2013-12-26 12:29:00,12.2,-0.1,30.10,South,183,3.6,4.0,57,0.00,,---,0.00,VWS V13.01,2013-12-26 18:29:00,
2013-12-26 12:34:00,12.4,0.1,30.10,SW,226,4.7,5.1,57,0.00,,---,0.00,VWS V13.01,2013-12-26 18:34:00,
2013-12-26 12:39:00,12.7,0.4,30.10,WSW,245,5.1,5.1,57,0.00,,---,0.00,VWS V13.01,2013-12-26 18:39:00,
2013-12-26 12:44:00,12.9,0.6,30.10,SW,214,4.5,5.1,57,0.00,,---,0.00,VWS V13.01,2013-12-26 18:44:00,
2013-12-26 12:50:00,12.9,0.6,30.10,SSE,152,3.6,4.0,57,0.00,,---,0.00,VWS V13.01,2013-12-26 18:50:00,
2013-12-26 12:55:00,12.7,0.4,30.10,SSE,167,3.1,4.0,57,0.00,,---,0.00,VWS V13.01,2013-12-26 18:55:00,
2013-12-26 13:00:00,12.7,0.4,30.10,SW,223,0.0,0.0,57,0.00,,---,0.00,VWS V13.01,2013-12-26 19:00:00,
2013-12-26 13:05:00,12.7,0.4,30.10,SSE,161,4.0,4.5,57,0.00,,---,0.00,VWS V13.01,2013-12-26 19:05:00,
2013-12-26 13:10:00,12.9,0.6,30.10,SW,229,3.6,4.0,57,0.00,,---,0.00,VWS V13.01,2013-12-26 19:10:00,
2013-12-26 13:15:00,12.7,0.4,30.07,SSE,158,4.5,4.5,57,0.00,,---,0.00,VWS V13.01,2013-12-26 19:15:00,
2013-12-26 13:20:00,12.7,0.4,30.07,SSW,195,2.7,3.6,57,0.00,,---,0.00,VWS V13.01,2013-12-26 19:20:00,
2013-12-26 13:25:00,12.7,0.4,30.07,SSE,154,3.1,4.0,57,0.00,,---,0.00,VWS V13.01,2013-12-26 19:25:00,
2013-12-26 13:30:00,12.7,0.4,30.07,SSE,166,3.6,4.7,57,0.00,,---,0.00,VWS V13.01,2013-12-26 19:30:00,
2013-12-26 13:35:00,12.7,0.4,30.07,SSW,202,4.0,4.0,57,0.00,,---,0.00,VWS V13.01,2013-12-26 19:35:00,
2013-12-26 13:40:00,12.7,0.4,30.07,SSW,194,2.7,4.0,57,0.00,,---,0.00,VWS V13.01,2013-12-26 19:40:00,
2013-12-26 13:46:00,12.7,0.4,30.07,SSE,165,3.6,4.7,57,0.00,,---,0.00,VWS V13.01,2013-12-26 19:46:00,
2013-12-26 13:51:00,12.7,0.4,30.07,SSW,197,4.0,4.5,57,0.00,,---,0.00,VWS V13.01,2013-12-26 19:51:00,
2013-12-26 13:56:00,12.7,0.4,30.07,SE,135,2.7,4.0,57,0.00,,---,0.00,VWS V13.01,2013-12-26 19:56:00,
2013-12-26 14:01:00,12.9,0.6,30.07,SW,216,0.0,0.0,57,0.00,,---,0.00,VWS V13.01,2013-12-26 20:01:00,
2013-12-26 14:06:00,12.9,0.6,30.07,SSW,201,4.0,4.7,57,0.00,,---,0.00,VWS V13.01,2013-12-26 20:06:00,
2013-12-26 14:11:00,12.9,0.6,30.07,SSW,196,2.7,4.5,57,0.00,,---,0.00,VWS V13.01,2013-12-26 20:11:00,
2013-12-26 14:16:00,12.9,0.6,30.07,SSE,157,3.6,3.6,57,0.00,,---,0.00,VWS V13.01,2013-12-26 20:16:00,
2013-12-26 14:21:00,13.1,0.7,30.07,SSW,209,3.1,3.1,57,0.00,,---,0.00,VWS V13.01,2013-12-26 20:21:00,
2013-12-26 14:26:00,13.3,0.9,30.07,SW,229,3.6,3.6,57,0.00,,---,0.00,VWS V13.01,2013-12-26 20:26:00,
2013-12-26 14:31:00,13.1,0.7,30.07,SW,229,0.0,0.0,57,0.00,,---,0.00,VWS V13.01,2013-12-26 20:31:00,
2013-12-26 14:36:00,13.3,0.9,30.07,South,185,3.1,3.1,57,0.00,,---,0.00,VWS V13.01,2013-12-26 20:36:00,
2013-12-26 14:41:00,13.3,0.9,30.07,South,185,0.0,0.0,57,0.00,,---,0.00,VWS V13.01,2013-12-26 20:41:00,
2013-12-26 14:46:00,13.5,1.1,30.07,SSW,203,0.0,0.0,57,0.00,,---,0.00,VWS V13.01,2013-12-26 20:46:00,
2013-12-26 14:52:00,13.5,1.1,30.07,SSW,205,0.0,0.0,57,0.00,,---,0.00,VWS V13.01,2013-12-26 20:52:00,
2013-12-26 14:57:00,13.5,1.1,30.07,SSW,205,0.0,0.0,57,0.00,,---,0.00,VWS V13.01,2013-12-26 20:57:00,
2013-12-26 15:02:00,13.6,1.2,30.07,SSW,205,0.0,0.0,57,0.00,,---,0.00,VWS V13.01,2013-12-26 21:02:00,
2013-12-26 15:07:00,13.6,1.2,30.07,SSW,205,3.6,3.6,57,0.00,,---,0.00,VWS V13.01,2013-12-26 21:07:00,
2013-12-26 15:12:00,13.5,1.1,30.07,SSW,205,0.0,0.0,57,0.00,,---,0.00,VWS V13.01,2013-12-26 21:12:00,
2013-12-26 15:17:00,13.5,1.1,30.07,SSW,205,3.6,3.6,57,0.00,,---,0.00,VWS V13.01,2013-12-26 21:17:00,
2013-12-26 15:22:00,13.5,1.1,30.07,SW,231,4.0,4.0,57,0.00,,---,0.00,VWS V13.01,2013-12-26 21:22:00,
2013-12-26 15:27:00,13.5,1.1,30.07,SW,223,3.1,3.1,57,0.00,,---,0.00,VWS V13.01,2013-12-26 21:27:00,
2013-12-26 15:32:00,13.5,1.1,30.07,SW,223,0.0,0.0,57,0.00,,---,0.00,VWS V13.01,2013-12-26 21:32:00,
2013-12-26 15:38:00,13.3,0.9,30.07,SW,223,0.0,0.0,57,0.00,,---,0.00,VWS V13.01,2013-12-26 21:38:00,
2013-12-26 15:43:00,13.1,0.7,30.07,SW,223,0.0,0.0,57,0.00,,---,0.00,VWS V13.01,2013-12-26 21:43:00,
2013-12-26 15:48:00,12.9,0.6,30.10,SW,223,0.0,0.0,57,0.00,,---,0.00,VWS V13.01,2013-12-26 21:48:00,
2013-12-26 15:53:00,12.7,0.4,30.10,SW,223,0.0,0.0,57,0.00,,---,0.00,VWS V13.01,2013-12-26 21:53:00,
2013-12-26 15:58:00,12.7,0.4,30.10,SW,223,0.0,0.0,57,0.00,,---,0.00,VWS V13.01,2013-12-26 21:58:00,
2013-12-26 16:03:00,12.6,0.2,30.10,SW,223,0.0,0.0,57,0.00,,---,0.00,VWS V13.01,2013-12-26 22:03:00,
2013-12-26 16:08:00,12.6,0.2,30.10,SW,223,0.0,0.0,57,0.00,,---,0.00,VWS V13.01,2013-12-26 22:08:00,
2013-12-26 16:13:00,12.4,0.1,30.10,SW,223,0.0,0.0,57,0.00,,---,0.00,VWS V13.01,2013-12-26 22:13:00,
2013-12-26 16:18:00,12.2,-0.1,30.10,SW,223,0.0,0.0,57,0.00,,---,0.00,VWS V13.01,2013-12-26 22:18:00,
2013-12-26 16:23:00,12.0,-0.3,30.10,SW,223,0.0,0.0,57,0.00,,---,0.00,VWS V13.01,2013-12-26 22:23:00,
2013-12-26 16:28:00,12.0,-0.3,30.10,SW,223,0.0,0.0,57,0.00,,---,0.00,VWS V13.01,2013-12-26 22:28:00,
2013-12-26 16:34:00,12.0,-0.3,30.10,SW,223,0.0,0.0,57,0.00,,---,0.00,VWS V13.01,2013-12-26 22:34:00,
2013-12-26 16:36:00,12.0,-0.3,30.10,SW,223,0.0,0.0,57,0.00,,---,0.00,VWS V13.01,2013-12-26 22:36:00,
2013-12-26 16:41:00,11.8,-0.4,30.10,SW,223,0.0,0.0,57,0.00,,---,0.00,VWS V13.01,2013-12-26 22:41:00,
2013-12-26 16:46:00,11.8,-0.4,30.10,SW,223,0.0,0.0,57,0.00,,---,0.00,VWS V13.01,2013-12-26 22:46:00,
2013-12-26 16:51:00,11.7,-0.6,30.10,SW,223,0.0,0.0,57,0.00,,---,0.00,VWS V13.01,2013-12-26 22:51:00,
2013-12-26 16:56:00,11.7,-0.6,30.10,SW,223,0.0,0.0,57,0.00,,---,0.00,VWS V13.01,2013-12-26 22:56:00,
2013-12-26 17:01:00,11.5,-0.8,30.10,SW,223,0.0,0.0,57,0.00,,---,0.00,VWS V13.01,2013-12-26 23:01:00,
2013-12-26 17:07:00,11.5,-0.8,30.10,SW,223,0.0,0.0,57,0.00,,---,0.00,VWS V13.01,2013-12-26 23:07:00,
2013-12-26 17:12:00,11.3,-1.0,30.10,SW,223,0.0,0.0,57,0.00,,---,0.00,VWS V13.01,2013-12-26 23:12:00,
2013-12-26 17:17:00,11.3,-1.0,30.13,SW,223,0.0,0.0,57,0.00,,---,0.00,VWS V13.01,2013-12-26 23:17:00,
2013-12-26 17:22:00,11.1,-1.1,30.13,SW,223,0.0,0.0,57,0.00,,---,0.00,VWS V13.01,2013-12-26 23:22:00,
2013-12-26 17:27:00,11.1,-1.1,30.13,SW,223,0.0,0.0,57,0.00,,---,0.00,VWS V13.01,2013-12-26 23:27:00,
2013-12-26 17:32:00,10.9,-1.3,30.13,SW,223,0.0,0.0,57,0.00,,---,0.00,VWS V13.01,2013-12-26 23:32:00,
2013-12-26 17:37:00,10.9,-1.3,30.13,SW,223,0.0,0.0,57,0.00,,---,0.00,VWS V13.01,2013-12-26 23:37:00,
2013-12-26 17:42:00,10.8,-1.5,30.13,SW,223,0.0,0.0,57,0.00,,---,0.00,VWS V13.01,2013-12-26 23:42:00,
2013-12-26 17:47:00,10.4,-1.8,30.13,SW,223,0.0,0.0,57,0.00,,---,0.00,VWS V13.01,2013-12-26 23:47:00,
2013-12-26 17:49:00,10.4,-1.8,30.13,SW,223,0.0,0.0,57,0.00,,---,0.00,VWS V13.01,2013-12-26 23:49:00,
2013-12-26 17:54:00,10.2,-2.0,30.13,SW,223,0.0,0.0,57,0.00,,---,0.00,VWS V13.01,2013-12-26 23:54:00,
2013-12-26 17:59:00,10.2,-2.0,30.13,SW,223,0.0,0.0,57,0.00,,---,0.00,VWS V13.01,2013-12-26 23:59:00,
2013-12-26 18:04:00,9.9,-2.3,30.13,SW,223,0.0,0.0,57,0.00,,---,0.00,VWS V13.01,2013-12-27 00:04:00,
2013-12-26 18:09:00,9.7,-2.5,30.13,SW,223,0.0,0.0,57,0.00,,---,0.00,VWS V13.01,2013-12-27 00:09:00,
2013-12-26 18:14:00,9.5,-2.7,30.13,SW,223,0.0,0.0,57,0.00,,---,0.00,VWS V13.01,2013-12-27 00:14:00,
2013-12-26 18:19:00,9.3,-2.8,30.13,SW,223,0.0,0.0,57,0.00,,---,0.00,VWS V13.01,2013-12-27 00:19:00,
2013-12-26 18:24:00,9.3,-2.8,30.13,SW,223,0.0,0.0,57,0.00,,---,0.00,VWS V13.01,2013-12-27 00:24:00,
2013-12-26 18:29:00,9.0,-3.2,30.13,SW,223,0.0,0.0,57,0.00,,---,0.00,VWS V13.01,2013-12-27 00:29:00,
2013-12-26 18:34:00,8.8,-3.3,30.13,SW,223,0.0,0.0,57,0.00,,---,0.00,VWS V13.01,2013-12-27 00:34:00,
2013-12-26 18:39:00,8.6,-3.5,30.13,SW,223,0.0,0.0,57,0.00,,---,0.00,VWS V13.01,2013-12-27 00:39:00,
2013-12-26 18:44:00,8.4,-3.7,30.13,SW,223,0.0,0.0,57,0.00,,---,0.00,VWS V13.01,2013-12-27 00:44:00,
2013-12-26 18:49:00,8.1,-4.0,30.13,SW,223,0.0,0.0,57,0.00,,---,0.00,VWS V13.01,2013-12-27 00:49:00,
2013-12-26 18:54:00,7.9,-4.2,30.13,SW,224,0.0,0.0,57,0.00,,---,0.00,VWS V13.01,2013-12-27 00:54:00,
2013-12-26 18:59:00,7.7,-4.3,30.13,SW,223,0.0,0.0,57,0.00,,---,0.00,VWS V13.01,2013-12-27 00:59:00,
2013-12-26 19:04:00,7.5,-4.5,30.13,SW,223,0.0,0.0,57,0.00,,---,0.00,VWS V13.01,2013-12-27 01:04:00,
2013-12-26 19:09:00,7.2,-4.9,30.13,SW,223,0.0,0.0,57,0.00,,---,0.00,VWS V13.01,2013-12-27 01:09:00,
2013-12-26 19:14:00,6.8,-5.2,30.13,SW,223,0.0,0.0,57,0.00,,---,0.00,VWS V13.01,2013-12-27 01:14:00,
2013-12-26 19:19:00,6.4,-5.5,30.13,SW,223,0.0,0.0,57,0.00,,---,0.00,VWS V13.01,2013-12-27 01:19:00,
2013-12-26 19:24:00,6.3,-5.7,30.13,SW,223,0.0,0.0,57,0.00,,---,0.00,VWS V13.01,2013-12-27 01:24:00,
2013-12-26 19:29:00,5.9,-6.0,30.13,SW,223,0.0,0.0,57,0.00,,---,0.00,VWS V13.01,2013-12-27 01:29:00,
2013-12-26 19:35:00,5.9,-6.0,30.13,SW,223,0.0,0.0,57,0.00,,---,0.00,VWS V13.01,2013-12-27 01:35:00,
2013-12-26 19:40:00,5.5,-6.4,30.13,SW,224,0.0,0.0,57,0.00,,---,0.00,VWS V13.01,2013-12-27 01:40:00,
2013-12-26 19:45:00,5.4,-6.6,30.13,SW,223,0.0,0.0,57,0.00,,---,0.00,VWS V13.01,2013-12-27 01:45:00,
2013-12-26 19:50:00,5.2,-6.7,30.13,SW,223,0.0,0.0,57,0.00,,---,0.00,VWS V13.01,2013-12-27 01:50:00,
2013-12-26 19:55:00,4.8,-7.1,30.13,SW,223,0.0,0.0,57,0.00,,---,0.00,VWS V13.01,2013-12-27 01:55:00,
2013-12-26 20:00:00,4.8,-7.1,30.13,SW,223,0.0,0.0,57,0.00,,---,0.00,VWS V13.01,2013-12-27 02:00:00,
2013-12-26 20:05:00,4.6,-7.2,30.13,SW,223,0.0,0.0,57,0.00,,---,0.00,VWS V13.01,2013-12-27 02:05:00,
2013-12-26 20:10:00,4.5,-7.4,30.13,SW,223,0.0,0.0,57,0.00,,---,0.00,VWS V13.01,2013-12-27 02:10:00,
2013-12-26 20:15:00,4.5,-7.4,30.13,SW,223,0.0,0.0,57,0.00,,---,0.00,VWS V13.01,2013-12-27 02:15:00,
2013-12-26 20:20:00,4.5,-7.4,30.13,SW,223,0.0,0.0,57,0.00,,---,0.00,VWS V13.01,2013-12-27 02:20:00,
2013-12-26 20:25:00,4.3,-7.6,30.13,SSW,210,0.0,0.0,57,0.00,,---,0.00,VWS V13.01,2013-12-27 02:25:00,
2013-12-26 20:31:00,4.1,-7.7,30.13,SW,223,0.0,0.0,57,0.00,,---,0.00,VWS V13.01,2013-12-27 02:31:00,
2013-12-26 20:36:00,4.1,-7.7,30.13,SW,223,0.0,0.0,57,0.00,,---,0.00,VWS V13.01,2013-12-27 02:36:00,
2013-12-26 20:41:00,3.7,-8.1,30.13,SW,223,0.0,0.0,57,0.00,,---,0.00,VWS V13.01,2013-12-27 02:41:00,
2013-12-26 20:46:00,3.6,-8.2,30.13,SW,223,0.0,0.0,57,0.00,,---,0.00,VWS V13.01,2013-12-27 02:46:00,
2013-12-26 20:51:00,3.4,-8.4,30.13,SW,223,0.0,0.0,57,0.00,,---,0.00,VWS V13.01,2013-12-27 02:51:00,
2013-12-26 20:56:00,3.2,-8.6,30.13,SW,224,0.0,0.0,57,0.00,,---,0.00,VWS V13.01,2013-12-27 02:56:00,
2013-12-26 21:01:00,3.0,-8.8,30.13,SW,223,0.0,0.0,57,0.00,,---,0.00,VWS V13.01,2013-12-27 03:01:00,
2013-12-26 21:06:00,3.0,-8.8,30.13,SW,223,0.0,0.0,57,0.00,,---,0.00,VWS V13.01,2013-12-27 03:06:00,
2013-12-26 21:11:00,2.8,-8.9,30.13,SW,223,0.0,0.0,57,0.00,,---,0.00,VWS V13.01,2013-12-27 03:11:00,
2013-12-26 21:16:00,2.7,-9.1,30.13,SW,224,0.0,0.0,57,0.00,,---,0.00,VWS V13.01,2013-12-27 03:16:00,
2013-12-26 21:22:00,2.3,-9.4,30.13,SW,223,0.0,0.0,57,0.00,,---,0.00,VWS V13.01,2013-12-27 03:22:00,
2013-12-26 21:27:00,1.8,-9.9,30.13,SW,223,0.0,0.0,57,0.00,,---,0.00,VWS V13.01,2013-12-27 03:27:00,
2013-12-26 21:32:00,1.6,-10.1,30.13,SW,223,0.0,0.0,57,0.00,,---,0.00,VWS V13.01,2013-12-27 03:32:00,
2013-12-26 21:37:00,1.2,-10.5,30.13,SW,223,0.0,0.0,57,0.00,,---,0.00,VWS V13.01,2013-12-27 03:37:00,
2013-12-26 21:42:00,1.0,-10.6,30.13,SW,223,0.0,0.0,57,0.00,,---,0.00,VWS V13.01,2013-12-27 03:42:00,
2013-12-26 21:47:00,1.0,-10.6,30.13,SW,223,0.0,0.0,57,0.00,,---,0.00,VWS V13.01,2013-12-27 03:47:00,
2013-12-26 21:52:00,1.2,-10.5,30.13,SW,224,0.0,0.0,57,0.00,,---,0.00,VWS V13.01,2013-12-27 03:52:00,
2013-12-26 21:57:00,1.2,-10.5,30.13,SW,223,0.0,0.0,57,0.00,,---,0.00,VWS V13.01,2013-12-27 03:57:00,
2013-12-26 22:02:00,1.0,-10.6,30.13,SW,223,0.0,0.0,57,0.00,,---,0.00,VWS V13.01,2013-12-27 04:02:00,
2013-12-26 22:07:00,1.0,-10.6,30.13,SW,223,0.0,0.0,57,0.00,,---,0.00,VWS V13.01,2013-12-27 04:07:00,
2013-12-26 22:13:00,1.0,-10.6,30.13,SW,224,0.0,0.0,57,0.00,,---,0.00,VWS V13.01,2013-12-27 04:13:00,
2013-12-26 22:18:00,0.9,-10.8,30.13,SW,223,0.0,0.0,57,0.00,,---,0.00,VWS V13.01,2013-12-27 04:18:00,
2013-12-26 22:23:00,1.2,-10.5,30.13,SW,223,0.0,0.0,57,0.00,,---,0.00,VWS V13.01,2013-12-27 04:23:00,
2013-12-26 22:28:00,1.2,-10.5,30.13,SW,223,0.0,0.0,57,0.00,,---,0.00,VWS V13.01,2013-12-27 04:28:00,
2013-12-26 22:33:00,1.6,-10.1,30.13,SW,223,0.0,0.0,57,0.00,,---,0.00,VWS V13.01,2013-12-27 04:33:00,
2013-12-26 22:38:00,1.6,-10.1,30.13,SW,223,0.0,0.0,57,0.00,,---,0.00,VWS V13.01,2013-12-27 04:38:00,
2013-12-26 22:43:00,1.6,-10.1,30.13,SW,223,0.0,0.0,57,0.00,,---,0.00,VWS V13.01,2013-12-27 04:43:00,
2013-12-26 22:48:00,1.4,-10.3,30.13,SW,223,0.0,0.0,57,0.00,,---,0.00,VWS V13.01,2013-12-27 04:48:00,
2013-12-26 22:53:00,1.2,-10.5,30.13,SW,223,0.0,0.0,57,0.00,,---,0.00,VWS V13.01,2013-12-27 04:53:00,
2013-12-26 22:58:00,1.2,-10.5,30.13,SW,223,0.0,0.0,57,0.00,,---,0.00,VWS V13.01,2013-12-27 04:58:00,
2013-12-26 23:01:00,1.2,-10.5,30.13,SW,224,0.0,0.0,57,0.00,,---,0.00,VWS V13.01,2013-12-27 05:01:00,
2013-12-26 23:02:00,1.2,-10.5,30.13,SW,223,0.0,0.0,57,0.00,,---,0.00,VWS V13.01,2013-12-27 05:02:00,
2013-12-26 23:03:00,1.2,-10.5,30.13,SW,223,0.0,0.0,57,0.00,,---,0.00,VWS V13.01,2013-12-27 05:03:00,
2013-12-26 23:08:00,1.6,-10.1,30.13,SW,223,0.0,0.0,57,0.00,,---,0.00,VWS V13.01,2013-12-27 05:08:00,
2013-12-26 23:14:00,1.6,-10.1,30.13,SW,223,0.0,0.0,57,0.00,,---,0.00,VWS V13.01,2013-12-27 05:14:00,
2013-12-26 23:19:00,1.9,-9.8,30.13,SW,223,0.0,0.0,57,0.00,,---,0.00,VWS V13.01,2013-12-27 05:19:00,
2013-12-26 23:24:00,2.8,-8.9,30.13,SW,223,0.0,0.0,57,0.00,,---,0.00,VWS V13.01,2013-12-27 05:24:00,
2013-12-26 23:29:00,3.9,-7.9,30.13,SW,224,0.0,0.0,57,0.00,,---,0.00,VWS V13.01,2013-12-27 05:29:00,
2013-12-26 23:34:00,4.3,-7.6,30.13,SW,223,0.0,0.0,57,0.00,,---,0.00,VWS V13.01,2013-12-27 05:34:00,
2013-12-26 23:39:00,4.1,-7.7,30.13,SW,224,0.0,0.0,57,0.00,,---,0.00,VWS V13.01,2013-12-27 05:39:00,
2013-12-26 23:44:00,4.3,-7.6,30.13,SW,223,0.0,0.0,57,0.00,,---,0.00,VWS V13.01,2013-12-27 05:44:00,
2013-12-26 23:49:00,4.5,-7.4,30.13,SW,224,0.0,0.0,57,0.00,,---,0.00,VWS V13.01,2013-12-27 05:49:00,
2013-12-26 23:54:00,4.8,-7.1,30.13,SW,223,0.0,0.0,57,0.00,,---,0.00,VWS V13.01,2013-12-27 05:54:00,
2013-12-26 23:59:00,5.0,-6.9,30.13,SW,223,0.0,0.0,57,0.00,,---,0.00,VWS V13.01,2013-12-27 05:59:00,